sensor_id;sensor_type;location;lat;lon;timestamp;pressure;altitude;pressure_sealevel;temperature;humidity
2178;BME280;1095;50.992;6.798;2022-08-18T00:02:09;100562.69;;;18.37;98.22
2178;BME280;1095;50.992;6.798;2022-08-18T00:04:37;100561.47;;;18.26;98.59
2178;BME280;1095;50.992;6.798;2022-08-18T00:07:04;100560.66;;;18.26;98.91
2178;BME280;1095;50.992;6.798;2022-08-18T00:09:32;100565.56;;;18.22;99.47
2178;BME280;1095;50.992;6.798;2022-08-18T00:12:04;100562.91;;;18.22;99.60
2178;BME280;1095;50.992;6.798;2022-08-18T00:14:31;100555.78;;;18.22;99.61
2178;BME280;1095;50.992;6.798;2022-08-18T00:16:58;100553.34;;;18.21;99.87
2178;BME280;1095;50.992;6.798;2022-08-18T00:19:25;100555.78;;;18.22;99.71
2178;BME280;1095;50.992;6.798;2022-08-18T00:21:52;100556.59;;;18.23;99.98
2178;BME280;1095;50.992;6.798;2022-08-18T00:24:18;100552.53;;;18.20;100.00
2178;BME280;1095;50.992;6.798;2022-08-18T00:26:45;100554.97;;;18.15;100.00
2178;BME280;1095;50.992;6.798;2022-08-18T00:29:13;100552.94;;;18.17;100.00
2178;BME280;1095;50.992;6.798;2022-08-18T00:31:40;100553.16;;;18.16;100.00
2178;BME280;1095;50.992;6.798;2022-08-18T00:34:06;100550.09;;;18.12;100.00
2178;BME280;1095;50.992;6.798;2022-08-18T00:36:33;100539.50;;;18.12;100.00
2178;BME280;1095;50.992;6.798;2022-08-18T00:39:00;100533.81;;;18.09;100.00
2178;BME280;1095;50.992;6.798;2022-08-18T00:41:27;100548.28;;;18.06;100.00
2178;BME280;1095;50.992;6.798;2022-08-18T00:43:55;100533.19;;;18.13;100.00
2178;BME280;1095;50.992;6.798;2022-08-18T00:46:27;100537.88;;;18.11;100.00
2178;BME280;1095;50.992;6.798;2022-08-18T00:48:55;100537.25;;;18.09;100.00
2178;BME280;1095;50.992;6.798;2022-08-18T00:51:27;100534.63;;;18.03;100.00
2178;BME280;1095;50.992;6.798;2022-08-18T00:53:59;100530.97;;;18.04;100.00
2178;BME280;1095;50.992;6.798;2022-08-18T00:56:33;100528.31;;;17.97;100.00
2178;BME280;1095;50.992;6.798;2022-08-18T00:59:05;100531.81;;;17.84;100.00
2178;BME280;1095;50.992;6.798;2022-08-18T01:01:35;100526.34;;;17.79;100.00
2178;BME280;1095;50.992;6.798;2022-08-18T01:04:05;100518.38;;;17.86;100.00
2178;BME280;1095;50.992;6.798;2022-08-18T01:06:40;100529.78;;;17.80;100.00
2178;BME280;1095;50.992;6.798;2022-08-18T01:09:09;100519.22;;;17.73;100.00
2178;BME280;1095;50.992;6.798;2022-08-18T01:11:37;100527.53;;;17.64;100.00
2178;BME280;1095;50.992;6.798;2022-08-18T01:14:04;100539.34;;;17.61;100.00
2178;BME280;1095;50.992;6.798;2022-08-18T01:16:31;100543.41;;;17.64;100.00
2178;BME280;1095;50.992;6.798;2022-08-18T01:19:18;100544.41;;;17.63;100.00
2178;BME280;1095;50.992;6.798;2022-08-18T01:22:09;100539.13;;;17.63;100.00
2178;BME280;1095;50.992;6.798;2022-08-18T01:24:39;100544.81;;;17.53;100.00
2178;BME280;1095;50.992;6.798;2022-08-18T01:27:24;100554.59;;;17.52;100.00
2178;BME280;1095;50.992;6.798;2022-08-18T01:29:56;100551.13;;;17.52;100.00
2178;BME280;1095;50.992;6.798;2022-08-18T01:32:27;100550.13;;;17.53;100.00
2178;BME280;1095;50.992;6.798;2022-08-18T01:34:54;100544.41;;;17.49;100.00
2178;BME280;1095;50.992;6.798;2022-08-18T01:37:23;100546.03;;;17.50;100.00
2178;BME280;1095;50.992;6.798;2022-08-18T01:39:51;100546.06;;;17.44;100.00
2178;BME280;1095;50.992;6.798;2022-08-18T01:42:18;100557.06;;;17.47;100.00
2178;BME280;1095;50.992;6.798;2022-08-18T01:44:47;100554.41;;;17.47;100.00
2178;BME280;1095;50.992;6.798;2022-08-18T01:47:16;100561.09;;;17.50;100.00
2178;BME280;1095;50.992;6.798;2022-08-18T01:49:45;100562.94;;;17.49;100.00
2178;BME280;1095;50.992;6.798;2022-08-18T01:52:15;100563.16;;;17.48;100.00
2178;BME280;1095;50.992;6.798;2022-08-18T01:54:45;100573.75;;;17.48;100.00
2178;BME280;1095;50.992;6.798;2022-08-18T01:57:14;100583.91;;;17.44;100.00
2178;BME280;1095;50.992;6.798;2022-08-18T01:59:41;100579.44;;;17.45;100.00
2178;BME280;1095;50.992;6.798;2022-08-18T02:02:09;100582.28;;;17.43;100.00
2178;BME280;1095;50.992;6.798;2022-08-18T02:04:39;100576.38;;;17.41;100.00
2178;BME280;1095;50.992;6.798;2022-08-18T02:07:09;100577.59;;;17.45;100.00
2178;BME280;1095;50.992;6.798;2022-08-18T02:09:37;100578.22;;;17.47;100.00
2178;BME280;1095;50.992;6.798;2022-08-18T02:12:07;100565.59;;;17.36;100.00
2178;BME280;1095;50.992;6.798;2022-08-18T02:14:36;100553.56;;;17.27;100.00
2178;BME280;1095;50.992;6.798;2022-08-18T02:17:05;100554.59;;;17.26;100.00
2178;BME280;1095;50.992;6.798;2022-08-18T02:19:33;100557.63;;;17.23;100.00
2178;BME280;1095;50.992;6.798;2022-08-18T02:22:00;100570.22;;;17.14;100.00
2178;BME280;1095;50.992;6.798;2022-08-18T02:24:27;100570.84;;;17.16;100.00
2178;BME280;1095;50.992;6.798;2022-08-18T02:26:54;100562.91;;;17.16;100.00
2178;BME280;1095;50.992;6.798;2022-08-18T02:29:20;100566.34;;;17.10;100.00
2178;BME280;1095;50.992;6.798;2022-08-18T02:31:48;100556.56;;;17.04;100.00
2178;BME280;1095;50.992;6.798;2022-08-18T02:34:16;100565.72;;;17.02;100.00
2178;BME280;1095;50.992;6.798;2022-08-18T02:36:42;100554.56;;;17.00;100.00
2178;BME280;1095;50.992;6.798;2022-08-18T02:39:09;100551.69;;;16.95;100.00
2178;BME280;1095;50.992;6.798;2022-08-18T02:41:36;100543.72;;;16.88;100.00
2178;BME280;1095;50.992;6.798;2022-08-18T02:44:04;100550.44;;;16.90;100.00
2178;BME280;1095;50.992;6.798;2022-08-18T02:46:31;100563.06;;;16.88;100.00
2178;BME280;1095;50.992;6.798;2022-08-18T02:48:59;100547.19;;;16.88;100.00
2178;BME280;1095;50.992;6.798;2022-08-18T02:51:26;100549.22;;;16.86;100.00
2178;BME280;1095;50.992;6.798;2022-08-18T02:53:53;100549.81;;;16.82;100.00
2178;BME280;1095;50.992;6.798;2022-08-18T02:56:21;100550.66;;;16.89;100.00
2178;BME280;1095;50.992;6.798;2022-08-18T02:58:50;100542.31;;;16.85;100.00
2178;BME280;1095;50.992;6.798;2022-08-18T03:01:19;100548.81;;;16.89;100.00
2178;BME280;1095;50.992;6.798;2022-08-18T03:03:46;100546.56;;;16.86;100.00
2178;BME280;1095;50.992;6.798;2022-08-18T03:06:15;100542.28;;;16.79;100.00
2178;BME280;1095;50.992;6.798;2022-08-18T03:08:42;100541.66;;;16.77;100.00
2178;BME280;1095;50.992;6.798;2022-08-18T03:11:13;100531.06;;;16.70;100.00
2178;BME280;1095;50.992;6.798;2022-08-18T03:13:40;100549.78;;;16.75;100.00
2178;BME280;1095;50.992;6.798;2022-08-18T03:16:06;100558.78;;;16.87;100.00
2178;BME280;1095;50.992;6.798;2022-08-18T03:18:33;100553.28;;;16.89;100.00
2178;BME280;1095;50.992;6.798;2022-08-18T03:21:04;100555.16;;;16.95;100.00
2178;BME280;1095;50.992;6.798;2022-08-18T03:23:32;100542.91;;;16.87;100.00
2178;BME280;1095;50.992;6.798;2022-08-18T03:25:59;100554.31;;;16.95;100.00
2178;BME280;1095;50.992;6.798;2022-08-18T03:28:25;100552.28;;;17.03;100.00
2178;BME280;1095;50.992;6.798;2022-08-18T03:30:53;100558.22;;;17.12;100.00
2178;BME280;1095;50.992;6.798;2022-08-18T03:33:20;100562.69;;;17.18;100.00
2178;BME280;1095;50.992;6.798;2022-08-18T03:35:46;100559.03;;;17.19;100.00
2178;BME280;1095;50.992;6.798;2022-08-18T03:38:13;100564.72;;;17.16;100.00
2178;BME280;1095;50.992;6.798;2022-08-18T03:40:41;100561.88;;;17.11;100.00
2178;BME280;1095;50.992;6.798;2022-08-18T03:43:08;100569.00;;;17.17;100.00
2178;BME280;1095;50.992;6.798;2022-08-18T03:45:34;100564.94;;;17.14;100.00
2178;BME280;1095;50.992;6.798;2022-08-18T03:48:02;100560.84;;;17.12;100.00
2178;BME280;1095;50.992;6.798;2022-08-18T03:50:28;100558.03;;;17.20;100.00
2178;BME280;1095;50.992;6.798;2022-08-18T03:52:56;100547.88;;;17.23;100.00
2178;BME280;1095;50.992;6.798;2022-08-18T03:55:24;100554.78;;;17.18;100.00
2178;BME280;1095;50.992;6.798;2022-08-18T03:57:57;100561.28;;;17.22;100.00
2178;BME280;1095;50.992;6.798;2022-08-18T04:00:23;100561.50;;;17.27;100.00
2178;BME280;1095;50.992;6.798;2022-08-18T04:02:51;100571.69;;;17.30;100.00
2178;BME280;1095;50.992;6.798;2022-08-18T04:05:18;100580.66;;;17.36;100.00
2178;BME280;1095;50.992;6.798;2022-08-18T04:07:45;100581.84;;;17.33;100.00
2178;BME280;1095;50.992;6.798;2022-08-18T04:10:11;100583.91;;;17.38;100.00
2178;BME280;1095;50.992;6.798;2022-08-18T04:12:39;100577.59;;;17.45;100.00
2178;BME280;1095;50.992;6.798;2022-08-18T04:15:09;100576.59;;;17.46;100.00
2178;BME280;1095;50.992;6.798;2022-08-18T04:17:36;100579.44;;;17.58;100.00
2178;BME280;1095;50.992;6.798;2022-08-18T04:20:03;100582.47;;;17.62;100.00
2178;BME280;1095;50.992;6.798;2022-08-18T04:22:30;100574.78;;;17.67;100.00
2178;BME280;1095;50.992;6.798;2022-08-18T04:24:59;100569.69;;;17.72;100.00
2178;BME280;1095;50.992;6.798;2022-08-18T04:27:27;100574.59;;;17.75;100.00
2178;BME280;1095;50.992;6.798;2022-08-18T04:29:54;100577.22;;;17.75;100.00
2178;BME280;1095;50.992;6.798;2022-08-18T04:32:22;100586.81;;;17.76;100.00
2178;BME280;1095;50.992;6.798;2022-08-18T04:34:49;100583.13;;;17.77;100.00
2178;BME280;1095;50.992;6.798;2022-08-18T04:37:17;100592.09;;;17.76;100.00
2178;BME280;1095;50.992;6.798;2022-08-18T04:39:44;100596.97;;;17.79;100.00
2178;BME280;1095;50.992;6.798;2022-08-18T04:42:11;100605.94;;;17.78;100.00
2178;BME280;1095;50.992;6.798;2022-08-18T04:44:37;100599.44;;;17.80;100.00
2178;BME280;1095;50.992;6.798;2022-08-18T04:47:05;100598.22;;;17.83;100.00
2178;BME280;1095;50.992;6.798;2022-08-18T04:49:33;100590.88;;;17.78;100.00
2178;BME280;1095;50.992;6.798;2022-08-18T04:52:00;100595.56;;;17.83;100.00
2178;BME280;1095;50.992;6.798;2022-08-18T04:54:44;100601.47;;;17.85;100.00
2178;BME280;1095;50.992;6.798;2022-08-18T04:57:13;100598.81;;;17.85;100.00
2178;BME280;1095;50.992;6.798;2022-08-18T04:59:43;100590.06;;;17.91;100.00
2178;BME280;1095;50.992;6.798;2022-08-18T05:02:11;100590.47;;;17.88;100.00
2178;BME280;1095;50.992;6.798;2022-08-18T05:04:41;100600.44;;;17.86;100.00
2178;BME280;1095;50.992;6.798;2022-08-18T05:07:12;100614.09;;;17.89;100.00
2178;BME280;1095;50.992;6.798;2022-08-18T05:09:40;100609.81;;;17.95;100.00
2178;BME280;1095;50.992;6.798;2022-08-18T05:12:09;100612.88;;;17.92;100.00
2178;BME280;1095;50.992;6.798;2022-08-18T05:14:37;100617.97;;;17.94;100.00
2178;BME280;1095;50.992;6.798;2022-08-18T05:17:04;100622.00;;;18.03;100.00
2178;BME280;1095;50.992;6.798;2022-08-18T05:19:31;100621.59;;;18.06;100.00
2178;BME280;1095;50.992;6.798;2022-08-18T05:22:01;100625.47;;;18.10;100.00
2178;BME280;1095;50.992;6.798;2022-08-18T05:24:30;100618.53;;;18.09;100.00
2178;BME280;1095;50.992;6.798;2022-08-18T05:26:57;100628.50;;;18.13;100.00
2178;BME280;1095;50.992;6.798;2022-08-18T05:29:24;100628.72;;;18.12;100.00
2178;BME280;1095;50.992;6.798;2022-08-18T05:31:52;100620.56;;;18.13;100.00
2178;BME280;1095;50.992;6.798;2022-08-18T05:34:20;100623.41;;;18.18;100.00
2178;BME280;1095;50.992;6.798;2022-08-18T05:37:09;100620.97;;;18.23;100.00
2178;BME280;1095;50.992;6.798;2022-08-18T05:39:45;100620.97;;;18.23;100.00
2178;BME280;1095;50.992;6.798;2022-08-18T05:42:19;100627.28;;;18.22;100.00
2178;BME280;1095;50.992;6.798;2022-08-18T05:44:48;100625.84;;;18.27;100.00
2178;BME280;1095;50.992;6.798;2022-08-18T05:47:18;100626.66;;;18.34;100.00
2178;BME280;1095;50.992;6.798;2022-08-18T05:49:48;100610.78;;;18.27;100.00
2178;BME280;1095;50.992;6.798;2022-08-18T05:52:20;100627.28;;;18.36;100.00
2178;BME280;1095;50.992;6.798;2022-08-18T05:54:51;100631.75;;;18.42;100.00
2178;BME280;1095;50.992;6.798;2022-08-18T05:57:41;100627.47;;;18.41;100.00
2178;BME280;1095;50.992;6.798;2022-08-18T06:00:09;100627.25;;;18.42;100.00
2178;BME280;1095;50.992;6.798;2022-08-18T06:02:40;100625.38;;;18.56;100.00
2178;BME280;1095;50.992;6.798;2022-08-18T06:05:13;100632.91;;;18.59;100.00
2178;BME280;1095;50.992;6.798;2022-08-18T06:07:47;100633.13;;;18.64;100.00
2178;BME280;1095;50.992;6.798;2022-08-18T06:10:15;100638.84;;;18.61;100.00
2178;BME280;1095;50.992;6.798;2022-08-18T06:12:44;100642.69;;;18.72;100.00
2178;BME280;1095;50.992;6.798;2022-08-18T06:15:14;100643.31;;;18.67;100.00
2178;BME280;1095;50.992;6.798;2022-08-18T06:17:55;100640.88;;;18.72;100.00
2178;BME280;1095;50.992;6.798;2022-08-18T06:20:28;100638.41;;;18.71;100.00
2178;BME280;1095;50.992;6.798;2022-08-18T06:23:10;100654.94;;;18.73;100.00
2178;BME280;1095;50.992;6.798;2022-08-18T06:25:51;100657.97;;;18.76;100.00
2178;BME280;1095;50.992;6.798;2022-08-18T06:28:20;100662.88;;;18.73;100.00
2178;BME280;1095;50.992;6.798;2022-08-18T06:30:55;100670.63;;;18.74;100.00
2178;BME280;1095;50.992;6.798;2022-08-18T06:33:37;100670.63;;;18.74;100.00
2178;BME280;1095;50.992;6.798;2022-08-18T06:36:12;100664.91;;;18.77;100.00
2178;BME280;1095;50.992;6.798;2022-08-18T06:38:51;100677.53;;;18.82;100.00
2178;BME280;1095;50.992;6.798;2022-08-18T06:41:31;100669.16;;;18.85;100.00
2178;BME280;1095;50.992;6.798;2022-08-18T06:44:01;100658.78;;;18.83;100.00
2178;BME280;1095;50.992;6.798;2022-08-18T06:46:35;100675.22;;;18.99;100.00
2178;BME280;1095;50.992;6.798;2022-08-18T06:49:07;100675.00;;;19.07;100.00
2178;BME280;1095;50.992;6.798;2022-08-18T06:51:35;100683.72;;;19.14;100.00
2178;BME280;1095;50.992;6.798;2022-08-18T06:54:04;100675.78;;;19.14;100.00
2178;BME280;1095;50.992;6.798;2022-08-18T06:56:35;100674.94;;;19.20;100.00
2178;BME280;1095;50.992;6.798;2022-08-18T06:59:22;100677.78;;;19.18;100.00
2178;BME280;1095;50.992;6.798;2022-08-18T07:01:52;100682.28;;;19.18;100.00
2178;BME280;1095;50.992;6.798;2022-08-18T07:04:36;100675.38;;;19.10;100.00
2178;BME280;1095;50.992;6.798;2022-08-18T07:07:29;100682.72;;;19.15;100.00
2178;BME280;1095;50.992;6.798;2022-08-18T07:09:57;100672.75;;;19.04;100.00
2178;BME280;1095;50.992;6.798;2022-08-18T07:12:26;100673.75;;;19.09;100.00
2178;BME280;1095;50.992;6.798;2022-08-18T07:14:56;100680.28;;;19.07;100.00
2178;BME280;1095;50.992;6.798;2022-08-18T07:17:27;100674.13;;;19.19;100.00
2178;BME280;1095;50.992;6.798;2022-08-18T07:20:05;100667.41;;;19.17;100.00
2178;BME280;1095;50.992;6.798;2022-08-18T07:22:50;100663.53;;;19.13;100.00
2178;BME280;1095;50.992;6.798;2022-08-18T07:25:24;100660.00;;;19.26;100.00
2178;BME280;1095;50.992;6.798;2022-08-18T07:27:51;100651.66;;;19.22;100.00
2178;BME280;1095;50.992;6.798;2022-08-18T07:30:32;100648.88;;;19.42;100.00
2178;BME280;1095;50.992;6.798;2022-08-18T07:33:08;100649.69;;;19.42;99.54
2178;BME280;1095;50.992;6.798;2022-08-18T07:35:39;100648.25;;;19.46;99.16
2178;BME280;1095;50.992;6.798;2022-08-18T07:38:13;100657.22;;;19.45;99.15
2178;BME280;1095;50.992;6.798;2022-08-18T07:40:47;100653.44;;;19.35;99.32
2178;BME280;1095;50.992;6.798;2022-08-18T07:43:21;100654.13;;;19.17;100.00
2178;BME280;1095;50.992;6.798;2022-08-18T07:45:54;100651.84;;;19.27;100.00
2178;BME280;1095;50.992;6.798;2022-08-18T07:48:25;100658.97;;;19.33;99.88
2178;BME280;1095;50.992;6.798;2022-08-18T07:51:04;100662.22;;;19.35;99.74
2178;BME280;1095;50.992;6.798;2022-08-18T07:53:42;100660.53;;;19.41;99.81
2178;BME280;1095;50.992;6.798;2022-08-18T07:56:18;100664.16;;;19.46;99.20
2178;BME280;1095;50.992;6.798;2022-08-18T07:58:50;100673.16;;;19.52;98.98
2178;BME280;1095;50.992;6.798;2022-08-18T08:01:24;100684.09;;;19.69;98.46
2178;BME280;1095;50.992;6.798;2022-08-18T08:04:00;100687.41;;;19.58;98.05
2178;BME280;1095;50.992;6.798;2022-08-18T08:06:31;100692.72;;;19.58;98.46
2178;BME280;1095;50.992;6.798;2022-08-18T08:09:04;100685.28;;;19.73;97.47
2178;BME280;1095;50.992;6.798;2022-08-18T08:11:45;100684.13;;;19.87;97.04
2178;BME280;1095;50.992;6.798;2022-08-18T08:14:25;100683.66;;;19.97;96.50
2178;BME280;1095;50.992;6.798;2022-08-18T08:17:01;100696.25;;;19.83;96.86
2178;BME280;1095;50.992;6.798;2022-08-18T08:19:43;100695.44;;;19.82;96.80
2178;BME280;1095;50.992;6.798;2022-08-18T08:22:17;100691.75;;;19.83;96.78
2178;BME280;1095;50.992;6.798;2022-08-18T08:24:52;100693.00;;;19.81;96.81
2178;BME280;1095;50.992;6.798;2022-08-18T08:27:31;100682.81;;;19.78;96.69
2178;BME280;1095;50.992;6.798;2022-08-18T08:30:03;100686.91;;;19.74;97.00
2178;BME280;1095;50.992;6.798;2022-08-18T08:32:33;100695.56;;;19.63;97.05
2178;BME280;1095;50.992;6.798;2022-08-18T08:35:05;100710.69;;;19.55;97.55
2178;BME280;1095;50.992;6.798;2022-08-18T08:37:38;100706.94;;;19.70;97.30
2178;BME280;1095;50.992;6.798;2022-08-18T08:40:12;100695.47;;;19.76;96.87
2178;BME280;1095;50.992;6.798;2022-08-18T08:42:45;100702.63;;;19.75;96.79
2178;BME280;1095;50.992;6.798;2022-08-18T08:45:17;100698.00;;;19.64;97.61
2178;BME280;1095;50.992;6.798;2022-08-18T08:47:47;100697.28;;;19.82;97.17
2178;BME280;1095;50.992;6.798;2022-08-18T08:50:20;100705.56;;;19.92;96.87
2178;BME280;1095;50.992;6.798;2022-08-18T08:52:53;100716.13;;;19.99;96.51
2178;BME280;1095;50.992;6.798;2022-08-18T08:55:22;100713.06;;;20.02;96.09
2178;BME280;1095;50.992;6.798;2022-08-18T08:58:08;100715.91;;;20.00;95.66
2178;BME280;1095;50.992;6.798;2022-08-18T09:00:38;100713.13;;;19.88;96.38
2178;BME280;1095;50.992;6.798;2022-08-18T09:03:23;100714.94;;;19.95;96.42
2178;BME280;1095;50.992;6.798;2022-08-18T09:05:58;100712.88;;;19.97;95.83
2178;BME280;1095;50.992;6.798;2022-08-18T09:08:39;100711.22;;;20.02;95.51
2178;BME280;1095;50.992;6.798;2022-08-18T09:11:42;100712.56;;;20.11;95.11
2178;BME280;1095;50.992;6.798;2022-08-18T09:17:21;100698.03;;;20.14;94.88
2178;BME280;1095;50.992;6.798;2022-08-18T09:20:05;100694.03;;;20.30;94.33
2178;BME280;1095;50.992;6.798;2022-08-18T09:22:44;100707.00;;;20.44;93.18
2178;BME280;1095;50.992;6.798;2022-08-18T09:25:31;100700.09;;;20.62;92.78
2178;BME280;1095;50.992;6.798;2022-08-18T09:28:09;100703.66;;;20.74;91.35
2178;BME280;1095;50.992;6.798;2022-08-18T09:30:42;100699.78;;;20.88;90.89
2178;BME280;1095;50.992;6.798;2022-08-18T09:33:20;100699.56;;;21.08;89.96
2178;BME280;1095;50.992;6.798;2022-08-18T09:36:09;100693.72;;;21.36;88.50
2178;BME280;1095;50.992;6.798;2022-08-18T09:38:49;100698.50;;;21.87;86.65
2178;BME280;1095;50.992;6.798;2022-08-18T09:41:39;100702.41;;;22.26;84.81
2178;BME280;1095;50.992;6.798;2022-08-18T09:44:13;100700.91;;;22.42;84.09
2178;BME280;1095;50.992;6.798;2022-08-18T09:47:01;100696.00;;;22.86;82.19
2178;BME280;1095;50.992;6.798;2022-08-18T09:49:46;100696.53;;;23.11;80.67
2178;BME280;1095;50.992;6.798;2022-08-18T09:52:45;100702.81;;;23.05;80.96
2178;BME280;1095;50.992;6.798;2022-08-18T09:58:14;100710.00;;;23.73;78.33
2178;BME280;1095;50.992;6.798;2022-08-18T10:00:43;100706.22;;;23.86;77.64
2178;BME280;1095;50.992;6.798;2022-08-18T10:03:24;100721.41;;;23.68;77.51
2178;BME280;1095;50.992;6.798;2022-08-18T10:06:05;100725.81;;;23.91;77.44
2178;BME280;1095;50.992;6.798;2022-08-18T10:08:44;100734.31;;;23.88;76.57
2178;BME280;1095;50.992;6.798;2022-08-18T10:11:36;100724.50;;;23.77;76.32
2178;BME280;1095;50.992;6.798;2022-08-18T10:14:27;100729.72;;;24.00;76.64
2178;BME280;1095;50.992;6.798;2022-08-18T10:17:14;100720.06;;;23.82;75.84
2178;BME280;1095;50.992;6.798;2022-08-18T10:19:52;100717.19;;;23.56;76.87
2178;BME280;1095;50.992;6.798;2022-08-18T10:22:39;100709.28;;;23.49;77.24
2178;BME280;1095;50.992;6.798;2022-08-18T10:25:09;100701.69;;;23.29;76.85
2178;BME280;1095;50.992;6.798;2022-08-18T10:27:51;100707.69;;;23.36;77.34
2178;BME280;1095;50.992;6.798;2022-08-18T10:30:47;100704.06;;;23.42;76.75
2178;BME280;1095;50.992;6.798;2022-08-18T10:33:54;100702.06;;;23.78;75.79
2178;BME280;1095;50.992;6.798;2022-08-18T10:36:43;100703.06;;;23.89;75.91
2178;BME280;1095;50.992;6.798;2022-08-18T10:39:13;100678.53;;;23.92;74.42
2178;BME280;1095;50.992;6.798;2022-08-18T10:44:17;100664.50;;;24.01;74.48
2178;BME280;1095;50.992;6.798;2022-08-18T10:46:48;100653.97;;;23.95;74.08
2178;BME280;1095;50.992;6.798;2022-08-18T10:49:21;100675.66;;;23.65;75.71
2178;BME280;1095;50.992;6.798;2022-08-18T10:52:16;100659.88;;;23.63;75.01
2178;BME280;1095;50.992;6.798;2022-08-18T10:55:24;100659.63;;;24.32;72.86
2178;BME280;1095;50.992;6.798;2022-08-18T11:01:05;100643.47;;;25.04;70.55
2178;BME280;1095;50.992;6.798;2022-08-18T11:03:47;100647.41;;;24.96;69.78
2178;BME280;1095;50.992;6.798;2022-08-18T11:06:46;100634.47;;;24.71;70.48
2178;BME280;1095;50.992;6.798;2022-08-18T11:09:24;100644.19;;;24.56;69.60
2178;BME280;1095;50.992;6.798;2022-08-18T11:11:53;100645.13;;;24.44;69.96
2178;BME280;1095;50.992;6.798;2022-08-18T11:14:51;100638.06;;;24.22;69.83
2178;BME280;1095;50.992;6.798;2022-08-18T11:17:29;100634.66;;;24.43;70.20
2178;BME280;1095;50.992;6.798;2022-08-18T11:20:00;100649.97;;;24.69;69.87
2178;BME280;1095;50.992;6.798;2022-08-18T11:22:29;100641.13;;;24.47;69.75
2178;BME280;1095;50.992;6.798;2022-08-18T11:25:21;100631.63;;;24.78;68.95
2178;BME280;1095;50.992;6.798;2022-08-18T11:27:48;100637.03;;;24.61;68.94
2178;BME280;1095;50.992;6.798;2022-08-18T11:30:26;100623.28;;;24.74;68.72
2178;BME280;1095;50.992;6.798;2022-08-18T11:32:54;100622.09;;;24.65;68.71
2178;BME280;1095;50.992;6.798;2022-08-18T11:35:26;100620.91;;;24.78;68.41
2178;BME280;1095;50.992;6.798;2022-08-18T11:37:57;100612.06;;;24.77;68.33
2178;BME280;1095;50.992;6.798;2022-08-18T11:40:33;100603.75;;;24.96;67.46
2178;BME280;1095;50.992;6.798;2022-08-18T11:43:04;100611.31;;;24.82;68.18
2178;BME280;1095;50.992;6.798;2022-08-18T11:45:49;100614.91;;;25.14;68.14
2178;BME280;1095;50.992;6.798;2022-08-18T11:48:35;100618.09;;;25.38;67.12
2178;BME280;1095;50.992;6.798;2022-08-18T11:51:17;100615.06;;;25.30;67.82
2178;BME280;1095;50.992;6.798;2022-08-18T11:53:53;100617.22;;;25.06;67.91
2178;BME280;1095;50.992;6.798;2022-08-18T11:56:24;100613.16;;;25.25;67.49
2178;BME280;1095;50.992;6.798;2022-08-18T11:58:54;100610.31;;;25.10;67.02
2178;BME280;1095;50.992;6.798;2022-08-18T12:01:46;100611.16;;;25.16;67.11
2178;BME280;1095;50.992;6.798;2022-08-18T12:04:22;100609.03;;;25.44;66.51
2178;BME280;1095;50.992;6.798;2022-08-18T12:06:56;100613.03;;;25.15;66.55
2178;BME280;1095;50.992;6.798;2022-08-18T12:09:31;100605.50;;;25.12;66.34
2178;BME280;1095;50.992;6.798;2022-08-18T12:12:02;100617.22;;;25.06;66.76
2178;BME280;1095;50.992;6.798;2022-08-18T12:14:31;100620.38;;;25.52;65.56
2178;BME280;1095;50.992;6.798;2022-08-18T12:16:59;100619.28;;;25.53;64.88
2178;BME280;1095;50.992;6.798;2022-08-18T12:19:26;100622.44;;;25.44;64.92
2178;BME280;1095;50.992;6.798;2022-08-18T12:21:59;100635.78;;;25.66;64.22
2178;BME280;1095;50.992;6.798;2022-08-18T12:24:28;100648.41;;;25.71;63.77
2178;BME280;1095;50.992;6.798;2022-08-18T12:26:56;100648.63;;;26.01;62.11
2178;BME280;1095;50.992;6.798;2022-08-18T12:29:26;100659.56;;;25.90;63.01
2178;BME280;1095;50.992;6.798;2022-08-18T12:31:53;100677.69;;;25.77;62.77
2178;BME280;1095;50.992;6.798;2022-08-18T12:34:23;100682.38;;;25.65;63.70
2178;BME280;1095;50.992;6.798;2022-08-18T12:36:53;100699.97;;;25.83;64.04
2178;BME280;1095;50.992;6.798;2022-08-18T12:39:22;100688.19;;;25.84;63.01
2178;BME280;1095;50.992;6.798;2022-08-18T12:41:52;100663.09;;;26.00;63.14
2178;BME280;1095;50.992;6.798;2022-08-18T12:44:23;100661.94;;;26.23;62.45
2178;BME280;1095;50.992;6.798;2022-08-18T12:46:52;100668.19;;;26.34;61.66
2178;BME280;1095;50.992;6.798;2022-08-18T12:49:21;100647.31;;;26.04;61.78
2178;BME280;1095;50.992;6.798;2022-08-18T12:51:55;100623.97;;;25.99;61.32
2178;BME280;1095;50.992;6.798;2022-08-18T12:54:28;100628.91;;;26.18;61.60
2178;BME280;1095;50.992;6.798;2022-08-18T12:56:58;100610.13;;;26.18;61.45
2178;BME280;1095;50.992;6.798;2022-08-18T12:59:30;100597.75;;;26.59;60.54
2178;BME280;1095;50.992;6.798;2022-08-18T13:01:59;100599.31;;;26.44;60.70
2178;BME280;1095;50.992;6.798;2022-08-18T13:04:26;100574.75;;;26.21;60.43
2178;BME280;1095;50.992;6.798;2022-08-18T13:06:55;100596.63;;;26.02;61.33
2178;BME280;1095;50.992;6.798;2022-08-18T13:09:27;100602.53;;;26.04;61.37
2178;BME280;1095;50.992;6.798;2022-08-18T13:12:03;100580.28;;;25.99;61.13
2178;BME280;1095;50.992;6.798;2022-08-18T13:14:30;100585.72;;;25.72;60.76
2178;BME280;1095;50.992;6.798;2022-08-18T13:16:58;100586.31;;;25.52;62.85
2178;BME280;1095;50.992;6.798;2022-08-18T13:19:25;100569.41;;;25.78;61.70
2178;BME280;1095;50.992;6.798;2022-08-18T13:21:52;100557.44;;;25.91;60.92
2178;BME280;1095;50.992;6.798;2022-08-18T13:24:19;100557.44;;;25.91;61.28
2178;BME280;1095;50.992;6.798;2022-08-18T13:26:46;100554.94;;;25.79;62.08
2178;BME280;1095;50.992;6.798;2022-08-18T13:29:13;100560.81;;;25.44;62.31
2178;BME280;1095;50.992;6.798;2022-08-18T13:31:42;100554.41;;;25.45;62.79
2178;BME280;1095;50.992;6.798;2022-08-18T13:34:10;100566.66;;;25.36;63.03
2178;BME280;1095;50.992;6.798;2022-08-18T13:36:38;100554.31;;;25.35;62.88
2178;BME280;1095;50.992;6.798;2022-08-18T13:39:12;100560.81;;;25.44;62.02
2178;BME280;1095;50.992;6.798;2022-08-18T13:41:39;100568.06;;;25.44;62.27
2178;BME280;1095;50.992;6.798;2022-08-18T13:44:07;100560.88;;;25.50;61.98
2178;BME280;1095;50.992;6.798;2022-08-18T13:46:35;100548.25;;;25.82;61.45